Time;durP1;ratioP1;P1;durP2;ratioP2;P2;SDS_P1;SDS_P2;PMS_P1;PMS_P2;Temp;Humidity;BMP_temperature;BMP_pressure;BME280_temperature;BME280_humidity;BME280_pressure;Samples;Min_cycle;Max_cycle;Signal;HPM_P1;HPM_P2
2022/08/05 00:00:17;;;;;;;28.00;25.00;;;;;;;-144.27;100.00;69759.91;2058652;28;20245;-75
2022/08/05 00:01:20;;;;;;;28.60;25.50;;;;;;;-144.27;100.00;69759.91;2059119;28;20520;-75
2022/08/05 00:02:23;;;;;;;28.53;25.17;;;;;;;-144.27;100.00;69759.91;2066460;28;20498;-75
2022/08/05 00:03:23;;;;;;;26.47;23.87;;;;;;;-144.27;100.00;69759.91;2066519;28;20451;-75
2022/08/05 00:04:25;;;;;;;29.00;25.13;;;;;;;-144.27;100.00;69759.91;2058507;28;20464;-75
2022/08/05 00:05:28;;;;;;;35.47;25.70;;;;;;;-144.27;100.00;69759.91;2066501;28;20196;-75
2022/08/05 00:06:30;;;;;;;28.53;25.50;;;;;;;-144.27;100.00;69759.91;2066079;28;20487;-75
2022/08/05 00:07:31;;;;;;;29.70;24.87;;;;;;;-144.27;100.00;69759.91;2058510;28;20540;-75
2022/08/05 00:08:33;;;;;;;27.83;24.93;;;;;;;-144.27;100.00;69759.91;2066439;28;20436;-75
2022/08/05 00:09:34;;;;;;;28.73;25.33;;;;;;;-144.27;100.00;69759.91;2065916;28;20284;-74
2022/08/05 00:10:35;;;;;;;27.87;25.07;;;;;;;-144.27;100.00;69759.91;2050417;29;20465;-75
2022/08/05 00:11:36;;;;;;;27.33;24.57;;;;;;;-144.27;100.00;69759.91;2058460;28;20676;-75
2022/08/05 00:12:38;;;;;;;26.60;23.83;;;;;;;-144.27;100.00;69759.91;2066611;28;20547;-75
2022/08/05 00:13:40;;;;;;;26.20;23.60;;;;;;;-144.27;100.00;69759.91;2059038;28;20229;-74
2022/08/05 00:14:43;;;;;;;27.93;24.00;;;;;;;-144.27;100.00;69759.91;2066233;28;20479;-75
2022/08/05 00:15:43;;;;;;;25.37;22.77;;;;;;;-144.27;100.00;69759.91;2066310;28;20443;-75
2022/08/05 00:16:45;;;;;;;26.33;23.53;;;;;;;-144.27;100.00;69759.91;2058317;28;20441;-74
2022/08/05 00:17:47;;;;;;;25.57;23.03;;;;;;;-144.27;100.00;69759.91;2050416;28;20199;-74
2022/08/05 00:18:49;;;;;;;25.67;23.10;;;;;;;-144.27;100.00;69759.91;2050277;28;21043;-75
2022/08/05 00:19:50;;;;;;;26.27;23.73;;;;;;;-144.27;100.00;69759.91;2050366;28;20450;-76
2022/08/05 00:20:51;;;;;;;30.40;23.90;;;;;;;-144.27;100.00;69759.91;2058722;28;20425;-74
2022/08/05 00:21:52;;;;;;;25.27;22.97;;;;;;;-144.27;100.00;69759.91;2058327;28;20198;-75
2022/08/05 00:22:54;;;;;;;25.53;22.87;;;;;;;-144.27;100.00;69759.91;2058406;28;20461;-75
2022/08/05 00:23:54;;;;;;;26.60;24.10;;;;;;;-144.27;100.00;69759.91;2059102;28;20197;-75
2022/08/05 00:24:57;;;;;;;26.00;23.50;;;;;;;-144.27;100.00;69759.91;2058946;28;20428;-75
2022/08/05 00:25:58;;;;;;;25.80;23.23;;;;;;;-144.27;100.00;69759.91;2059031;28;20200;-74
2022/08/05 00:27:00;;;;;;;26.47;23.77;;;;;;;-144.27;100.00;69759.91;2066285;28;20451;-75
2022/08/05 00:28:00;;;;;;;27.13;23.90;;;;;;;-144.27;100.00;69759.91;2065656;28;20209;-74
2022/08/05 00:29:02;;;;;;;26.50;23.80;;;;;;;-144.27;100.00;69759.91;2066296;28;20444;-75
2022/08/05 00:30:03;;;;;;;26.23;23.83;;;;;;;-144.27;100.00;69759.91;2066615;28;20200;-75
2022/08/05 00:31:06;;;;;;;26.33;23.67;;;;;;;-144.27;100.00;69759.91;2066258;28;20970;-76
2022/08/05 00:32:07;;;;;;;26.50;23.37;;;;;;;-144.27;100.00;69759.91;2066306;28;20432;-75
2022/08/05 00:33:09;;;;;;;25.67;23.20;;;;;;;-144.27;100.00;69759.91;2066309;28;20458;-75
2022/08/05 00:34:11;;;;;;;25.10;22.50;;;;;;;-144.27;100.00;69759.91;2066456;28;20462;-74
2022/08/05 00:35:12;;;;;;;26.67;23.87;;;;;;;-144.27;100.00;69759.91;2058778;28;20484;-75
2022/08/05 00:36:13;;;;;;;25.97;23.60;;;;;;;-144.27;100.00;69759.91;2066210;28;20454;-75
2022/08/05 00:37:14;;;;;;;26.77;24.27;;;;;;;-144.27;100.00;69759.91;2066259;28;20193;-75
2022/08/05 00:38:16;;;;;;;26.03;23.37;;;;;;;-144.27;100.00;69759.91;2058951;28;20437;-75
2022/08/05 00:39:16;;;;;;;26.00;23.37;;;;;;;-144.27;100.00;69759.91;2058789;28;20224;-75
2022/08/05 00:40:18;;;;;;;26.20;23.47;;;;;;;-144.27;100.00;69759.91;2058831;28;20435;-75
2022/08/05 00:41:28;;;;;;;26.13;23.50;;;;;;;-144.27;100.00;69759.91;2066221;28;20686;-75
2022/08/05 00:42:31;;;;;;;26.23;23.63;;;;;;;-144.27;100.00;69759.91;2064984;28;20424;-74
2022/08/05 00:43:32;;;;;;;26.17;23.47;;;;;;;-144.27;100.00;69759.91;2058260;28;20491;-74
2022/08/05 00:44:35;;;;;;;26.13;23.63;;;;;;;-144.27;100.00;69759.91;2066239;28;20475;-74
2022/08/05 00:45:35;;;;;;;27.70;23.67;;;;;;;-144.27;100.00;69759.91;2066077;28;20531;-75
2022/08/05 00:46:37;;;;;;;25.07;22.80;;;;;;;-144.27;100.00;69759.91;2058345;28;20425;-74
2022/08/05 00:47:38;;;;;;;25.87;23.50;;;;;;;-144.27;100.00;69759.91;2066189;28;20201;-75
2022/08/05 00:48:40;;;;;;;25.80;23.50;;;;;;;-144.27;100.00;69759.91;2066265;28;20972;-75
2022/08/05 00:49:41;;;;;;;25.63;22.90;;;;;;;-144.27;100.00;69759.91;2066218;28;20288;-75
2022/08/05 00:50:46;;;;;;;26.10;23.70;;;;;;;-144.27;100.00;69759.91;2066289;28;20429;-75
2022/08/05 00:51:46;;;;;;;25.63;22.97;;;;;;;-144.27;100.00;69759.91;2066151;28;20200;-74
2022/08/05 00:52:48;;;;;;;27.60;24.07;;;;;;;-144.27;100.00;69759.91;2066151;28;20448;-75
2022/08/05 00:53:49;;;;;;;26.57;23.67;;;;;;;-144.27;100.00;69759.91;2058203;28;20316;-75
2022/08/05 00:54:50;;;;;;;26.17;23.47;;;;;;;-144.27;100.00;69759.91;2058608;28;20437;-75
2022/08/05 00:55:51;;;;;;;26.40;23.90;;;;;;;-144.27;100.00;69759.91;2058655;28;20220;-75
2022/08/05 00:56:52;;;;;;;25.93;23.43;;;;;;;-144.27;100.00;69759.91;2058729;28;20451;-75
2022/08/05 00:57:53;;;;;;;28.60;23.83;;;;;;;-144.27;100.00;69759.91;2058715;28;20196;-74
2022/08/05 00:58:55;;;;;;;26.53;23.83;;;;;;;-144.27;100.00;69759.91;2057991;28;20480;-75
2022/08/05 00:59:55;;;;;;;26.30;23.67;;;;;;;-144.27;100.00;69759.91;2050068;28;20209;-74
2022/08/05 01:00:57;;;;;;;26.20;23.70;;;;;;;-144.27;100.00;69759.91;2058306;28;20448;-75
2022/08/05 01:01:58;;;;;;;26.60;23.80;;;;;;;-144.27;100.00;69759.91;2066015;28;20200;-75
2022/08/05 01:02:59;;;;;;;25.87;23.50;;;;;;;-144.27;100.00;69759.91;2066069;28;20437;-75
2022/08/05 01:04:03;;;;;;;27.23;23.23;;;;;;;-144.27;100.00;69759.91;2058108;28;20194;-75
2022/08/05 01:05:04;;;;;;;25.53;23.00;;;;;;;-144.27;100.00;69759.91;2066006;28;20460;-75
2022/08/05 01:06:06;;;;;;;25.80;23.50;;;;;;;-144.27;100.00;69759.91;2066276;28;20439;-75
2022/08/05 01:07:06;;;;;;;25.87;23.47;;;;;;;-144.27;100.00;69759.91;2065973;28;20456;-75
2022/08/05 01:08:08;;;;;;;25.97;23.47;;;;;;;-144.27;100.00;69759.91;2058036;28;20528;-75
2022/08/05 01:09:08;;;;;;;26.33;23.63;;;;;;;-144.27;100.00;69759.91;2050024;28;20226;-75
2022/08/05 01:10:11;;;;;;;31.13;23.90;;;;;;;-144.27;100.00;69759.91;2058246;28;20903;-74
2022/08/05 01:11:18;;;;;;;25.97;23.63;;;;;;;-144.27;100.00;69759.91;2058652;28;20280;-75
2022/08/05 01:12:20;;;;;;;26.03;23.67;;;;;;;-144.27;100.00;69759.91;2057992;28;20946;-75
2022/08/05 01:13:27;;;;;;;26.37;23.80;;;;;;;-144.27;100.00;69759.91;2058092;28;20465;-74
2022/08/05 01:14:33;;;;;;;26.00;23.70;;;;;;;-144.27;100.00;69759.91;2058705;28;20409;-75
2022/08/05 01:15:39;;;;;;;26.43;23.90;;;;;;;-144.27;100.00;69759.91;2058650;28;20452;-75
2022/08/05 01:16:47;;;;;;;25.97;23.33;;;;;;;-144.27;100.00;69759.91;2058574;28;20409;-75
2022/08/05 01:17:53;;;;;;;26.07;23.40;;;;;;;-144.27;100.00;69759.91;2065946;28;20433;-75
2022/08/05 01:18:58;;;;;;;25.57;23.37;;;;;;;-144.27;100.00;69759.91;2065191;28;20484;-75
2022/08/05 01:20:10;;;;;;;28.20;23.77;;;;;;;-144.27;100.00;69759.91;2050538;28;20552;-74
2022/08/05 01:21:18;;;;;;;26.73;24.13;;;;;;;-144.27;100.00;69759.91;2051233;28;20445;-75
2022/08/05 01:22:30;;;;;;;26.03;23.37;;;;;;;-144.27;100.00;69759.91;2058209;28;20792;-74
2022/08/05 01:23:56;;;;;;;26.07;23.40;;;;;;;-144.27;100.00;69759.91;2058761;28;20418;-74
2022/08/05 01:25:34;;;;;;;26.67;23.23;;;;;;;-144.27;100.00;69759.91;2065947;28;20498;-74
2022/08/05 01:26:46;;;;;;;26.50;23.80;;;;;;;-144.27;100.00;69759.91;2037836;28;20459;-75
2022/08/05 01:28:20;;;;;;;26.60;24.00;;;;;;;-144.27;100.00;69759.91;2051333;28;20458;-75
2022/08/05 01:29:28;;;;;;;26.30;23.77;;;;;;;-144.27;100.00;69759.91;2052975;28;20468;-75
2022/08/05 01:30:30;;;;;;;26.43;23.93;;;;;;;-144.27;100.00;69759.91;2065845;28;20436;-75
2022/08/05 01:31:35;;;;;;;26.03;23.60;;;;;;;-144.27;100.00;69759.91;2065661;28;20448;-75
2022/08/05 01:32:38;;;;;;;25.77;23.47;;;;;;;-144.27;100.00;69759.91;2050317;28;20449;-75
2022/08/05 01:33:47;;;;;;;26.60;24.17;;;;;;;-144.27;100.00;69759.91;2049994;28;20430;-74
2022/08/05 01:34:50;;;;;;;26.27;23.77;;;;;;;-144.27;100.00;69759.91;2050960;28;20454;-74
2022/08/05 01:35:53;;;;;;;25.97;23.60;;;;;;;-144.27;100.00;69759.91;2057956;28;20473;-74
2022/08/05 01:37:02;;;;;;;27.13;24.40;;;;;;;-144.27;100.00;69759.91;2058380;28;20938;-74
2022/08/05 01:38:04;;;;;;;26.10;23.87;;;;;;;-144.27;100.00;69759.91;2058667;28;20521;-74
2022/08/05 01:39:05;;;;;;;26.83;23.97;;;;;;;-144.27;100.00;69759.91;2057528;28;20524;-74
2022/08/05 01:40:07;;;;;;;26.53;23.73;;;;;;;-144.27;100.00;69759.91;2049079;28;20465;-74
2022/08/05 01:41:11;;;;;;;27.23;24.03;;;;;;;-144.27;100.00;69759.91;2057696;28;20484;-74
2022/08/05 01:42:13;;;;;;;27.67;23.60;;;;;;;-144.27;100.00;69759.91;2050054;28;20442;-74
2022/08/05 01:43:16;;;;;;;26.13;23.60;;;;;;;-144.27;100.00;69759.91;2058005;28;20461;-74
2022/08/05 01:44:18;;;;;;;26.30;23.80;;;;;;;-144.27;100.00;69759.91;2065681;28;20494;-74
2022/08/05 01:45:20;;;;;;;27.53;24.80;;;;;;;-144.27;100.00;69759.91;2065614;28;20485;-75
2022/08/05 01:46:23;;;;;;;26.77;24.27;;;;;;;-144.27;100.00;69759.91;2057818;28;20444;-74
2022/08/05 01:47:24;;;;;;;26.00;23.70;;;;;;;-144.27;100.00;69759.91;2058282;28;20836;-74
2022/08/05 01:48:26;;;;;;;27.37;24.43;;;;;;;-144.27;100.00;69759.91;2065563;28;20447;-75
2022/08/05 01:49:28;;;;;;;26.47;23.67;;;;;;;-144.27;100.00;69759.91;2065519;28;20467;-74
2022/08/05 01:50:32;;;;;;;27.13;24.43;;;;;;;-144.27;100.00;69759.91;2057603;28;20484;-74
2022/08/05 01:51:34;;;;;;;28.03;24.07;;;;;;;-144.27;100.00;69759.91;2057768;28;20436;-74
2022/08/05 01:52:37;;;;;;;26.87;24.10;;;;;;;-144.27;100.00;69759.91;2058434;28;20520;-74
2022/08/05 01:53:38;;;;;;;26.50;23.87;;;;;;;-144.27;100.00;69759.91;2058203;28;20433;-74
2022/08/05 01:54:43;;;;;;;27.80;25.27;;;;;;;-144.27;100.00;69759.91;2065612;28;20511;-74
2022/08/05 01:55:44;;;;;;;26.53;24.13;;;;;;;-144.27;100.00;69759.91;2065519;28;20506;-74
2022/08/05 01:56:46;;;;;;;26.70;24.23;;;;;;;-144.27;100.00;69759.91;2058253;28;20851;-74
2022/08/05 01:57:48;;;;;;;27.77;25.17;;;;;;;-144.27;100.00;69759.91;2065580;28;20452;-74
2022/08/05 01:58:51;;;;;;;27.57;24.80;;;;;;;-144.27;100.00;69759.91;2065407;28;20440;-74
2022/08/05 02:00:01;;;;;;;27.47;24.73;;;;;;;;;;2157793;27;20879;-76
2022/08/05 02:01:05;;;;;;;26.57;24.03;;;;;;;;;;2148810;27;20388;-76
2022/08/05 02:02:06;;;;;;;27.33;24.83;;;;;;;;;;2139396;27;20472;-76
2022/08/05 02:03:10;;;;;;;28.93;24.67;;;;;;;;;;2139599;27;20265;-76
2022/08/05 02:04:11;;;;;;;26.67;24.07;;;;;;;;;;2148695;27;20818;-75
2022/08/05 02:05:12;;;;;;;26.10;23.60;;;;;;;;;;2148882;27;20564;-76
2022/08/05 02:06:14;;;;;;;27.70;25.10;;;;;;;;;;2148706;27;20431;-76
2022/08/05 02:07:15;;;;;;;26.43;24.07;;;;;;;;;;2148935;27;20666;-76
2022/08/05 02:08:17;;;;;;;27.10;24.47;;;;;;;;;;2138584;27;20530;-76
2022/08/05 02:09:17;;;;;;;26.03;23.43;;;;;;;;;;2130663;27;20200;-75
2022/08/05 02:10:18;;;;;;;26.50;24.13;;;;;;;;;;2139642;27;20423;-76
2022/08/05 02:11:20;;;;;;;26.13;23.63;;;;;;;;;;2139410;27;20871;-76
2022/08/05 02:12:25;;;;;;;27.17;24.33;;;;;;;;;;2139655;27;20965;-76
2022/08/05 02:13:27;;;;;;;27.60;24.90;;;;;;;;;;2139249;27;20475;-76
2022/08/05 02:14:30;;;;;;;26.27;23.50;;;;;;;;;;2138422;27;20416;-75
2022/08/05 02:15:34;;;;;;;26.57;24.13;;;;;;;;;;2130626;27;20461;-76
2022/08/05 02:16:39;;;;;;;28.20;23.93;;;;;;;;;;2131102;27;20421;-76
2022/08/05 02:17:43;;;;;;;27.23;24.57;;;;;;;;;;2139935;27;20415;-76
2022/08/05 02:18:47;;;;;;;26.40;23.80;;;;;;;;;;2140148;27;20427;-76
2022/08/05 02:19:50;;;;;;;27.07;24.33;;;;;;;;;;2130582;27;20460;-76
2022/08/05 02:20:53;;;;;;;27.30;24.50;;;;;;;;;;2122268;27;20429;-76
2022/08/05 02:21:57;;;;;;;26.83;24.23;;;;;;;;;;2131062;27;20866;-76
2022/08/05 02:23:00;;;;;;;27.63;24.73;;;;;;;;;;2138789;27;20428;-76
2022/08/05 02:24:03;;;;;;;32.17;24.60;;;;;;;;;;2130557;27;20441;-76
2022/08/05 02:25:08;;;;;;;26.73;24.13;;;;;;;;;;2130984;27;20766;-76
2022/08/05 02:26:10;;;;;;;27.87;24.37;;;;;;;;;;2139811;27;20519;-76
2022/08/05 02:27:12;;;;;;;27.23;24.50;;;;;;;;;;2130199;27;20999;-75
2022/08/05 02:28:13;;;;;;;27.30;24.47;;;;;;;;;;2130891;27;20453;-75
2022/08/05 02:29:17;;;;;;;27.03;24.37;;;;;;;;;;2139861;27;20419;-76
2022/08/05 02:30:17;;;;;;;29.07;24.37;;;;;;;;;;2129819;27;20238;-75
2022/08/05 02:31:23;;;;;;;27.10;24.07;;;;;;;;;;2130705;27;20420;-76
2022/08/05 02:32:26;;;;;;;27.27;24.67;;;;;;;;;;2140063;27;20187;-76
2022/08/05 02:33:27;;;;;;;26.60;24.13;;;;;;;;;;2130464;27;20437;-76
2022/08/05 02:34:28;;;;;;;28.23;25.03;;;;;;;;;;2130585;27;20452;-76
2022/08/05 02:35:32;;;;;;;31.63;23.80;;;;;;;;;;2130497;27;20984;-75
2022/08/05 02:36:33;;;;;;;27.67;24.67;;;;;;;;;;2122167;27;20559;-76
2022/08/05 02:37:35;;;;;;;27.80;24.87;;;;;;;;;;2122008;27;20466;-76
2022/08/05 02:38:36;;;;;;;26.47;24.00;;;;;;;;;;2130557;27;20841;-76
2022/08/05 02:39:39;;;;;;;26.97;24.07;;;;;;;;;;2139739;27;20460;-76
2022/08/05 02:40:40;;;;;;;26.27;23.70;;;;;;;;;;2130529;27;20536;-75
2022/08/05 02:41:42;;;;;;;25.73;23.47;;;;;;;;;;2130893;27;20995;-75
2022/08/05 02:42:43;;;;;;;26.53;23.83;;;;;;;;;;2130436;27;20461;-76
2022/08/05 02:43:46;;;;;;;26.07;23.43;;;;;;;;;;2130639;27;20417;-76
2022/08/05 02:44:47;;;;;;;27.07;24.43;;;;;;;;;;2130386;27;20460;-75
2022/08/05 02:45:49;;;;;;;26.40;23.60;;;;;;;;;;2130396;27;20458;-76
2022/08/05 02:46:51;;;;;;;25.30;23.10;;;;;;;;;;2121855;28;20577;-75
2022/08/05 02:47:54;;;;;;;26.47;23.77;;;;;;;;;;2130678;27;20517;-76
2022/08/05 02:48:55;;;;;;;25.93;23.47;;;;;;;;;;2139721;27;20472;-76
2022/08/05 02:49:57;;;;;;;25.93;23.53;;;;;;;;;;2139872;27;20416;-75
2022/08/05 02:50:58;;;;;;;26.07;23.60;;;;;;;;;;2130337;27;20270;-76
2022/08/05 02:52:00;;;;;;;25.73;23.23;;;;;;;;;;2121796;28;20430;-75
2022/08/05 02:53:00;;;;;;;25.13;23.00;;;;;;;;;;2130555;27;20636;-75
2022/08/05 02:54:02;;;;;;;26.90;24.20;;;;;;;;;;2130368;27;20437;-75
2022/08/05 02:55:04;;;;;;;26.77;24.10;;;;;;;;;;2130564;27;20187;-75
2022/08/05 02:56:06;;;;;;;27.00;24.53;;;;;;;;;;2130388;27;20475;-75
2022/08/05 02:57:09;;;;;;;28.13;25.43;;;;;;;;;;2121165;27;20963;-75
2022/08/05 02:58:10;;;;;;;27.27;24.77;;;;;;;;;;2130726;27;20878;-75
2022/08/05 02:59:11;;;;;;;26.37;24.03;;;;;;;;;;2130122;27;20485;-75
2022/08/05 03:00:13;;;;;;;27.20;24.60;;;;;;;;;;2130631;27;20441;-75
2022/08/05 03:01:16;;;;;;;27.20;24.50;;;;;;;;;;2139880;27;20187;-75
2022/08/05 03:02:20;;;;;;;26.57;24.03;;;;;;;;;;2130323;27;20943;-75
2022/08/05 03:03:22;;;;;;;26.60;24.10;;;;;;;;;;2130611;27;20433;-75
2022/08/05 03:04:24;;;;;;;27.43;24.63;;;;;;;;;;2139736;27;20424;-75
2022/08/05 03:05:24;;;;;;;27.40;24.60;;;;;;;;;;2129876;27;20452;-75
2022/08/05 03:06:26;;;;;;;27.23;24.60;;;;;;;;;;2130574;27;20937;-75
2022/08/05 03:07:27;;;;;;;25.97;23.57;;;;;;;;;;2130300;27;20669;-75
2022/08/05 03:08:29;;;;;;;26.33;23.90;;;;;;;;;;2130472;27;20748;-75
2022/08/05 03:09:30;;;;;;;25.60;23.20;;;;;;;;;;2139517;27;20214;-75
2022/08/05 03:10:31;;;;;;;26.70;24.10;;;;;;;;;;2129871;27;20444;-75
2022/08/05 03:11:31;;;;;;;29.63;24.30;;;;;;;;;;2115448;28;20295;-75
2022/08/05 03:12:34;;;;;;;39.50;25.00;;;;;;;;;;2124531;27;20437;-75
2022/08/05 03:13:38;;;;;;;27.13;24.63;;;;;;;;;;2124853;27;20188;-75
2022/08/05 03:14:39;;;;;;;26.30;23.97;;;;;;;;;;2124391;27;20809;-75
2022/08/05 03:15:41;;;;;;;26.77;23.87;;;;;;;;;;2115941;28;20446;-75
2022/08/05 03:16:42;;;;;;;25.83;23.43;;;;;;;;;;2124754;27;20417;-75
2022/08/05 03:17:44;;;;;;;25.83;23.37;;;;;;;;;;2124491;27;20437;-75
2022/08/05 03:18:45;;;;;;;27.30;24.17;;;;;;;;;;2124487;27;20445;-75
2022/08/05 03:19:46;;;;;;;26.03;23.57;;;;;;;;;;2124327;27;20465;-75
2022/08/05 03:20:47;;;;;;;25.73;23.37;;;;;;;;;;2124575;27;20927;-76
2022/08/05 03:21:47;;;;;;;27.00;23.80;;;;;;;;;;2133704;27;20219;-75
2022/08/05 03:22:49;;;;;;;27.03;23.23;;;;;;;;;;2124026;27;20425;-75
2022/08/05 03:23:50;;;;;;;25.93;23.43;;;;;;;;;;2124507;27;20704;-75
2022/08/05 03:24:51;;;;;;;25.67;23.27;;;;;;;;;;2124361;27;20795;-75
2022/08/05 03:25:52;;;;;;;26.27;23.67;;;;;;;;;;2124740;27;20207;-75
2022/08/05 03:26:53;;;;;;;25.27;22.77;;;;;;;;;;2133650;27;20428;-75
2022/08/05 03:27:54;;;;;;;25.93;23.33;;;;;;;;;;2133743;27;20196;-75
2022/08/05 03:28:56;;;;;;;26.10;23.63;;;;;;;;;;2133566;27;20424;-75
2022/08/05 03:29:57;;;;;;;25.80;23.20;;;;;;;;;;2133716;27;20445;-75
2022/08/05 03:30:59;;;;;;;26.03;23.63;;;;;;;;;;2133590;27;20421;-75
2022/08/05 03:32:00;;;;;;;30.57;24.60;;;;;;;;;;2124210;27;20446;-75
2022/08/05 03:33:03;;;;;;;26.03;23.50;;;;;;;;;;2124417;27;20425;-75
2022/08/05 03:34:05;;;;;;;30.07;23.77;;;;;;;;;;2133535;27;20554;-75
2022/08/05 03:35:06;;;;;;;27.80;24.27;;;;;;;;;;2124292;27;20481;-75
2022/08/05 03:36:09;;;;;;;26.20;23.63;;;;;;;;;;2116061;28;20937;-75
2022/08/05 03:37:11;;;;;;;27.10;24.20;;;;;;;;;;2115967;27;20937;-75
2022/08/05 03:38:12;;;;;;;29.27;23.93;;;;;;;;;;2124397;27;20615;-75
2022/08/05 03:39:13;;;;;;;26.70;24.17;;;;;;;;;;2124276;27;20469;-75
2022/08/05 03:40:14;;;;;;;27.30;24.67;;;;;;;;;;2115654;28;20498;-75
2022/08/05 03:41:16;;;;;;;26.23;23.43;;;;;;;;;;2116003;28;20446;-75
2022/08/05 03:42:16;;;;;;;26.27;23.47;;;;;;;;;;2124389;27;20818;-75
2022/08/05 03:43:18;;;;;;;28.80;25.23;;;;;;;;;;2124261;27;20877;-75
2022/08/05 03:44:18;;;;;;;27.53;24.30;;;;;;;;;;2124372;27;20219;-75
2022/08/05 03:45:19;;;;;;;27.67;24.97;;;;;;;;;;2133518;27;20417;-75
2022/08/05 03:46:20;;;;;;;27.13;24.30;;;;;;;;;;2124236;27;20664;-75
2022/08/05 03:47:21;;;;;;;27.63;24.87;;;;;;;;;;2124168;27;20445;-75
2022/08/05 03:48:23;;;;;;;27.37;24.53;;;;;;;;;;2115700;28;20204;-75
2022/08/05 03:49:24;;;;;;;27.93;25.17;;;;;;;;;;2115733;28;20486;-75
2022/08/05 03:50:27;;;;;;;27.00;24.30;;;;;;;;;;2124550;27;20437;-75
2022/08/05 03:51:31;;;;;;;27.10;24.37;;;;;;;;;;2124204;27;20429;-75
2022/08/05 03:52:34;;;;;;;28.20;25.47;;;;;;;;;;2115939;27;20549;-75
2022/08/05 03:53:37;;;;;;;26.77;24.13;;;;;;;;;;2124641;27;20439;-75
2022/08/05 03:54:39;;;;;;;34.90;25.10;;;;;;;;;;2124176;27;20501;-75
2022/08/05 03:55:44;;;;;;;27.93;24.93;;;;;;;;;;2124138;27;20460;-75
2022/08/05 03:56:45;;;;;;;27.40;24.53;;;;;;;;;;2124771;27;20434;-75
2022/08/05 03:57:48;;;;;;;27.73;24.93;;;;;;;;;;2124210;27;20430;-75
2022/08/05 03:58:49;;;;;;;27.97;25.03;;;;;;;;;;2124472;27;20666;-75
2022/08/05 03:59:53;;;;;;;28.30;25.10;;;;;;;;;;2123859;27;20470;-75
2022/08/05 04:00:54;;;;;;;29.93;26.03;;;;;;;;;;2115928;27;20442;-75
2022/08/05 04:01:56;;;;;;;29.97;25.97;;;;;;;;;;2124296;27;20421;-75
2022/08/05 04:02:58;;;;;;;29.80;26.50;;;;;;;;;;2124067;27;20449;-75
2022/08/05 04:04:02;;;;;;;31.40;25.57;;;;;;;;;;2123660;27;20426;-75
2022/08/05 04:05:04;;;;;;;30.43;26.13;;;;;;;;;;2115825;28;20486;-75
2022/08/05 04:06:06;;;;;;;28.50;25.67;;;;;;;;;;2124369;27;20417;-75
2022/08/05 04:07:07;;;;;;;31.37;26.53;;;;;;;;;;2133245;27;20429;-75
2022/08/05 04:08:10;;;;;;;28.57;25.63;;;;;;;;;;2133287;27;20782;-75
2022/08/05 04:09:11;;;;;;;28.60;25.63;;;;;;;;;;2133273;27;20436;-75
2022/08/05 04:10:12;;;;;;;30.03;26.27;;;;;;;;;;2133790;27;20934;-76
2022/08/05 04:11:13;;;;;;;28.60;25.50;;;;;;;;;;2124109;27;20291;-75
2022/08/05 04:12:14;;;;;;;30.07;26.97;;;;;;;;;;2124078;27;20962;-75
2022/08/05 04:13:17;;;;;;;34.53;26.50;;;;;;;;;;2133741;27;20271;-75
2022/08/05 04:14:19;;;;;;;29.47;26.33;;;;;;;;;;2123734;27;20442;-75
2022/08/05 04:15:19;;;;;;;33.83;25.87;;;;;;;;;;2124089;27;20474;-75
2022/08/05 04:16:21;;;;;;;28.50;25.40;;;;;;;;;;2124351;27;20429;-74
2022/08/05 04:17:21;;;;;;;28.57;25.87;;;;;;;;;;2115594;28;20204;-75
2022/08/05 04:18:24;;;;;;;28.90;26.10;;;;;;;;;;2124118;27;20418;-75
2022/08/05 04:19:26;;;;;;;29.53;26.60;;;;;;;;;;2133298;27;20615;-75
2022/08/05 04:20:29;;;;;;;30.87;25.90;;;;;;;;;;2124007;27;20493;-75
2022/08/05 04:21:29;;;;;;;28.40;25.60;;;;;;;;;;2115670;28;20979;-74
2022/08/05 04:22:31;;;;;;;30.43;26.90;;;;;;;;;;2115339;28;20810;-74
2022/08/05 04:23:32;;;;;;;30.43;27.23;;;;;;;;;;2115180;28;20322;-74
2022/08/05 04:24:34;;;;;;;28.37;25.33;;;;;;;;;;2124313;27;20422;-74
2022/08/05 04:25:34;;;;;;;31.37;26.93;;;;;;;;;;2133280;27;20421;-75
2022/08/05 04:26:36;;;;;;;29.00;25.97;;;;;;;;;;2123887;27;20434;-75
2022/08/05 04:27:36;;;;;;;28.00;25.30;;;;;;;;;;2124117;27;20191;-74
2022/08/05 04:28:38;;;;;;;26.83;24.13;;;;;;;;;;2133808;27;20435;-74
2022/08/05 04:29:39;;;;;;;28.90;25.83;;;;;;;;;;2133571;27;20215;-74
2022/08/05 04:30:41;;;;;;;27.47;24.47;;;;;;;;;;2123810;27;20437;-74
2022/08/05 04:31:42;;;;;;;27.50;24.80;;;;;;;;;;2124109;27;20355;-75
2022/08/05 04:32:42;;;;;;;27.60;24.73;;;;;;;;;;2123725;27;20816;-75
2022/08/05 04:33:44;;;;;;;28.43;25.40;;;;;;;;;;2124016;27;20512;-75
2022/08/05 04:34:46;;;;;;;30.87;24.23;;;;;;;;;;2132369;27;20294;-74
2022/08/05 04:35:47;;;;;;;29.63;24.30;;;;;;;;;;2132513;27;20983;-74
2022/08/05 04:36:47;;;;;;;26.97;24.57;;;;;;;;;;2123719;27;20510;-74
2022/08/05 04:37:49;;;;;;;26.87;24.33;;;;;;;;;;2123891;27;20498;-74
2022/08/05 04:38:51;;;;;;;26.83;24.33;;;;;;;;;;2132474;27;20208;-74
2022/08/05 04:39:52;;;;;;;29.90;25.20;;;;;;;;;;2122922;27;20776;-75
2022/08/05 04:40:53;;;;;;;27.93;25.03;;;;;;;;;;2115186;28;20482;-74
2022/08/05 04:41:54;;;;;;;27.27;24.53;;;;;;;;;;2123905;27;20418;-74
2022/08/05 04:42:55;;;;;;;26.97;24.20;;;;;;;;;;2123892;27;20682;-74
2022/08/05 04:43:56;;;;;;;27.23;24.63;;;;;;;;;;2123907;27;20813;-74
2022/08/05 04:44:57;;;;;;;29.13;25.20;;;;;;;;;;2133096;27;20653;-75
2022/08/05 04:45:58;;;;;;;28.90;25.77;;;;;;;;;;2133189;27;20765;-76
2022/08/05 04:46:59;;;;;;;28.07;24.97;;;;;;;;;;2123726;27;20568;-76
2022/08/05 04:48:04;;;;;;;27.77;24.97;;;;;;;;;;2115189;28;20427;-74
2022/08/05 04:49:05;;;;;;;27.30;24.43;;;;;;;;;;2115728;28;20677;-74
2022/08/05 04:50:08;;;;;;;34.60;24.60;;;;;;;;;;2115248;28;20928;-74
2022/08/05 04:51:11;;;;;;;27.87;25.03;;;;;;;;;;2115333;28;20193;-74
2022/08/05 04:52:12;;;;;;;30.67;26.03;;;;;;;;;;2124177;27;20418;-75
2022/08/05 04:53:14;;;;;;;28.00;25.23;;;;;;;;;;2133011;27;20439;-75
2022/08/05 04:54:15;;;;;;;30.40;24.80;;;;;;;;;;2123679;27;20943;-75
2022/08/05 04:55:16;;;;;;;29.63;24.57;;;;;;;;;;2123952;27;20433;-75
2022/08/05 04:56:17;;;;;;;28.43;25.33;;;;;;;;;;2123659;27;20430;-75
2022/08/05 04:57:17;;;;;;;30.40;24.90;;;;;;;;;;2115302;28;20204;-75
2022/08/05 04:58:19;;;;;;;27.70;24.87;;;;;;;;;;2123796;27;20904;-76
2022/08/05 04:59:21;;;;;;;29.10;26.00;;;;;;;;;;2132010;27;20227;-76
2022/08/05 05:00:23;;;;;;;33.20;25.60;;;;;;;;;;2123827;27;20422;-74
2022/08/05 05:01:24;;;;;;;30.27;26.40;;;;;;;;;;2115263;28;21027;-75
2022/08/05 05:02:25;;;;;;;28.67;25.87;;;;;;;;;;2115110;28;20832;-75
2022/08/05 05:03:26;;;;;;;33.37;26.03;;;;;;;;;;2115151;28;20654;-76
2022/08/05 05:04:30;;;;;;;33.57;27.50;;;;;;;;;;2123725;27;20877;-74
2022/08/05 05:05:32;;;;;;;31.27;25.63;;;;;;;;;;2123545;27;20199;-75
2022/08/05 05:06:34;;;;;;;35.37;25.87;;;;;;;;;;2115152;28;20779;-75
2022/08/05 05:07:34;;;;;;;27.90;24.50;;;;;;;;;;2123552;27;20442;-75
2022/08/05 05:08:36;;;;;;;30.43;26.00;;;;;;;;;;2123192;27;20838;-74
2022/08/05 05:09:36;;;;;;;28.07;25.37;;;;;;;;;;2123681;27;20196;-75
2022/08/05 05:10:40;;;;;;;33.53;26.17;;;;;;;;;;2123504;27;20430;-74
2022/08/05 05:11:41;;;;;;;30.47;25.43;;;;;;;;;;2115424;27;20295;-74
2022/08/05 05:12:42;;;;;;;30.17;25.20;;;;;;;;;;2123636;27;20421;-74
2022/08/05 05:13:43;;;;;;;30.00;25.50;;;;;;;;;;2132853;27;20544;-75
2022/08/05 05:14:44;;;;;;;32.50;25.80;;;;;;;;;;2132775;27;20436;-74
2022/08/05 05:15:45;;;;;;;28.57;25.53;;;;;;;;;;2132767;27;20684;-75
2022/08/05 05:16:46;;;;;;;30.40;26.43;;;;;;;;;;2123463;27;20852;-74
2022/08/05 05:17:46;;;;;;;29.13;26.17;;;;;;;;;;2123844;27;20541;-75
2022/08/05 05:18:48;;;;;;;31.40;25.97;;;;;;;;;;2123450;27;20445;-75
2022/08/05 05:19:48;;;;;;;31.20;25.83;;;;;;;;;;2123624;27;20200;-74
2022/08/05 05:20:51;;;;;;;33.27;25.63;;;;;;;;;;2123655;27;20472;-74
2022/08/05 05:21:51;;;;;;;31.57;26.10;;;;;;;;;;2115046;28;20196;-75
2022/08/05 05:22:53;;;;;;;32.60;26.30;;;;;;;;;;2114937;28;20518;-75
2022/08/05 05:23:53;;;;;;;28.70;25.90;;;;;;;;;;2123541;27;20534;-75
2022/08/05 05:24:55;;;;;;;27.90;25.00;;;;;;;;;;2123443;27;20495;-74
2022/08/05 05:25:55;;;;;;;27.47;24.77;;;;;;;;;;2123605;27;20220;-74